Wetterdaten: Woche 28.09.15 - 04.10.15 (KW40)
Datum Zeit Temp. A. Feuchte A. Luftdruck Regen Wind Richtung Taupunkt Windchill Windben
28.09.2015 00:00 13,0 C 64 % 1029,4 hPa 0,0 l/m 4,4 km/h N 6,4 C 13,0 C 14,1 km/h
28.09.2015 01:00 12,8 C 65 % 1029,4 hPa 0,0 l/m 3,7 km/h N 6,4 C 12,8 C 13,3 km/h
28.09.2015 02:00 12,6 C 66 % 1029,5 hPa 0,0 l/m 4,1 km/h N 6,4 C 12,6 C 13,3 km/h
28.09.2015 03:00 11,7 C 69 % 1029,6 hPa 0,0 l/m 2,5 km/h N 6,1 C 11,7 C 10,1 km/h
28.09.2015 04:00 11,0 C 71 % 1029,4 hPa 0,0 l/m 3,5 km/h N 6,0 C 11,0 C 10,5 km/h
28.09.2015 05:00 10,7 C 72 % 1029,5 hPa 0,0 l/m 2,9 km/h N 5,9 C 10,7 C 10,9 km/h
28.09.2015 06:00 11,2 C 71 % 1029,7 hPa 0,0 l/m 3,4 km/h N 6,1 C 11,2 C 15,3 km/h
28.09.2015 07:00 11,0 C 71 % 1030,1 hPa 0,0 l/m 3,4 km/h N 5,9 C 11,0 C 10,9 km/h
28.09.2015 08:00 12,0 C 70 % 1030,7 hPa 0,0 l/m 5,5 km/h N 6,7 C 11,8 C 16,1 km/h
28.09.2015 09:00 13,6 C 65 % 1031,0 hPa 0,0 l/m 7,9 km/h N 7,2 C 12,7 C 19,7 km/h
28.09.2015 10:00 14,6 C 63 % 1031,1 hPa 0,0 l/m 8,4 km/h N 7,6 C 13,5 C 22,1 km/h
28.09.2015 11:00 15,3 C 58 % 1030,9 hPa 0,0 l/m 9,3 km/h N 6,9 C 13,7 C 25,0 km/h
28.09.2015 12:00 15,9 C 53 % 1030,5 hPa 0,0 l/m 10,3 km/h N 6,2 C 14,0 C 26,1 km/h
28.09.2015 13:00 16,3 C 51 % 1030,1 hPa 0,0 l/m 9,1 km/h N 6,0 C 14,9 C 22,1 km/h
28.09.2015 14:00 16,5 C 45 % 1029,9 hPa 0,0 l/m 10,4 km/h N 4,5 C 14,6 C 27,0 km/h
28.09.2015 15:00 16,4 C 44 % 1029,5 hPa 0,0 l/m 9,1 km/h N 4,2 C 15,1 C 24,1 km/h
28.09.2015 16:00 16,2 C 46 % 1029,5 hPa 0,0 l/m 9,4 km/h N 4,6 C 14,7 C 24,5 km/h
28.09.2015 17:00 15,9 C 45 % 1029,7 hPa 0,0 l/m 8,1 km/h N 4,0 C 14,9 C 21,3 km/h
28.09.2015 18:00 15,1 C 48 % 1030,2 hPa 0,0 l/m 5,7 km/h N 4,2 C 14,9 C 17,7 km/h
28.09.2015 19:00 14,1 C 52 % 1030,8 hPa 0,0 l/m 3,7 km/h N 4,2 C 14,1 C 14,1 km/h
28.09.2015 20:00 13,4 C 53 % 1031,3 hPa 0,0 l/m 2,5 km/h N 4,1 C 13,4 C 10,5 km/h
28.09.2015 21:00 12,8 C 55 % 1031,4 hPa 0,0 l/m 2,5 km/h N 3,9 C 12,8 C 10,9 km/h
28.09.2015 22:00 12,1 C 57 % 1031,5 hPa 0,0 l/m 1,3 km/h N 3,9 C 12,1 C 8,0 km/h
28.09.2015 23:00 11,3 C 61 % 1031,3 hPa 0,0 l/m 1,3 km/h N 4,0 C 11,3 C 10,5 km/h
29.09.2015 00:00 11,6 C 61 % 1031,0 hPa 0,0 l/m 2,5 km/h N 4,2 C 11,6 C 12,1 km/h
29.09.2015 01:00 10,9 C 63 % 1030,8 hPa 0,0 l/m 2,3 km/h N 4,2 C 10,9 C 13,3 km/h
29.09.2015 02:00 10,3 C 65 % 1030,9 hPa 0,0 l/m 1,8 km/h N 4,1 C 10,3 C 9,7 km/h
29.09.2015 03:00 9,8 C 68 % 1030,8 hPa 0,0 l/m 1,3 km/h N 4,1 C 9,8 C 8,9 km/h
29.09.2015 04:00 9,5 C 69 % 1030,6 hPa 0,0 l/m 0,9 km/h N 4,0 C 9,5 C 8,4 km/h
29.09.2015 05:00 9,3 C 70 % 1030,8 hPa 0,0 l/m 1,5 km/h N 4,2 C 9,3 C 9,3 km/h
29.09.2015 06:00 9,3 C 71 % 1031,0 hPa 0,0 l/m 1,8 km/h N 4,3 C 9,3 C 11,7 km/h
29.09.2015 07:00 9,1 C 73 % 1031,4 hPa 0,0 l/m 4,3 km/h N 4,5 C 9,1 C 15,3 km/h
29.09.2015 08:00 9,8 C 74 % 1031,6 hPa 0,0 l/m 5,0 km/h N 5,4 C 9,8 C 15,3 km/h
29.09.2015 09:00 11,7 C 71 % 1031,7 hPa 0,0 l/m 5,2 km/h N 6,7 C 11,7 C 15,3 km/h
29.09.2015 10:00 13,1 C 67 % 1031,6 hPa 0,0 l/m 6,5 km/h N 7,0 C 12,8 C 19,7 km/h
29.09.2015 11:00 13,9 C 66 % 1031,5 hPa 0,0 l/m 5,1 km/h N 7,6 C 13,9 C 14,9 km/h
29.09.2015 12:00 14,5 C 64 % 1031,3 hPa 0,0 l/m 4,8 km/h N 7,6 C 14,5 C 14,5 km/h
29.09.2015 13:00 15,1 C 60 % 1031,1 hPa 0,0 l/m 5,2 km/h N 7,3 C 15,1 C 16,9 km/h
29.09.2015 14:00 14,8 C 62 % 1030,9 hPa 0,0 l/m 4,9 km/h N 7,6 C 14,8 C 15,3 km/h
29.09.2015 15:00 15,5 C 60 % 1030,7 hPa 0,0 l/m 5,1 km/h N 7,6 C 15,5 C 13,7 km/h
29.09.2015 16:00 15,5 C 58 % 1030,5 hPa 0,0 l/m 3,4 km/h N 7,3 C 15,5 C 11,7 km/h
29.09.2015 17:00 15,2 C 61 % 1030,4 hPa 0,0 l/m 2,0 km/h N 7,7 C 15,2 C 9,3 km/h
29.09.2015 18:00 14,8 C 61 % 1030,7 hPa 0,0 l/m 1,9 km/h N 7,2 C 14,8 C 9,6 km/h
29.09.2015 19:00 14,4 C 56 % 1031,1 hPa 0,0 l/m 3,3 km/h N 5,8 C 14,4 C 12,1 km/h
29.09.2015 20:00 13,3 C 55 % 1031,3 hPa 0,0 l/m 2,8 km/h N 4,5 C 13,3 C 11,7 km/h
29.09.2015 21:00 12,1 C 59 % 1031,6 hPa 0,0 l/m 1,0 km/h N 4,2 C 12,1 C 8,1 km/h
29.09.2015 22:00 11,1 C 64 % 1031,7 hPa 0,0 l/m 0,8 km/h N 4,5 C 11,1 C 5,6 km/h
29.09.2015 23:00 10,5 C 68 % 1032,0 hPa 0,0 l/m 0,6 km/h N 4,7 C 10,5 C 4,8 km/h
30.09.2015 00:00 10,2 C 70 % 1032,1 hPa 0,0 l/m 0,5 km/h N 5,0 C 10,2 C 4,4 km/h
30.09.2015 01:00 9,9 C 72 % 1032,3 hPa 0,0 l/m 0,3 km/h N 5,1 C 9,9 C 4,8 km/h
30.09.2015 02:00 9,2 C 74 % 1032,2 hPa 0,0 l/m 0,2 km/h N 4,8 C 9,2 C 2,0 km/h
30.09.2015 03:00 8,4 C 77 % 1032,0 hPa 0,0 l/m 0,4 km/h N 4,5 C 8,4 C 2,8 km/h
30.09.2015 04:00 7,5 C 79 % 1031,9 hPa 0,0 l/m 0,0 km/h N 4,0 C 7,5 C 0,0 km/h
30.09.2015 05:00 6,9 C 81 % 1031,9 hPa 0,0 l/m 0,2 km/h N 3,8 C 6,9 C 1,6 km/h
30.09.2015 06:00 7,3 C 81 % 1031,6 hPa 0,0 l/m 0,2 km/h N 4,2 C 7,3 C 2,0 km/h
30.09.2015 07:00 7,8 C 79 % 1031,8 hPa 0,0 l/m 0,8 km/h N 4,4 C 7,8 C 4,0 km/h
30.09.2015 08:00 8,8 C 76 % 1032,1 hPa 0,0 l/m 2,6 km/h N 4,9 C 8,8 C 8,4 km/h
30.09.2015 09:00 9,4 C 75 % 1032,6 hPa 0,0 l/m 3,1 km/h N 5,1 C 9,4 C 9,3 km/h
30.09.2015 10:00 9,7 C 74 % 1032,6 hPa 0,0 l/m 3,8 km/h N 5,3 C 9,7 C 11,7 km/h
30.09.2015 11:00 10,6 C 70 % 1032,4 hPa 0,0 l/m 2,8 km/h N 5,5 C 10,6 C 11,3 km/h
30.09.2015 12:00 12,1 C 64 % 1032,0 hPa 0,0 l/m 1,0 km/h N 5,5 C 12,1 C 6,8 km/h
30.09.2015 13:00 12,9 C 60 % 1031,8 hPa 0,0 l/m 1,1 km/h N 5,2 C 12,9 C 6,4 km/h
30.09.2015 14:00 13,3 C 59 % 1031,3 hPa 0,0 l/m 1,6 km/h N 5,4 C 13,3 C 7,2 km/h
30.09.2015 15:00 13,1 C 59 % 1031,1 hPa 0,0 l/m 1,3 km/h N 5,2 C 13,1 C 8,0 km/h
30.09.2015 16:00 12,9 C 58 % 1031,2 hPa 0,0 l/m 2,3 km/h N 4,9 C 12,9 C 8,9 km/h
30.09.2015 17:00 12,5 C 60 % 1031,3 hPa 0,0 l/m 0,4 km/h N 4,9 C 12,5 C 6,0 km/h
30.09.2015 18:00 12,0 C 62 % 1031,4 hPa 0,0 l/m 0,0 km/h N 4,9 C 12,0 C 0,8 km/h
30.09.2015 19:00 11,1 C 67 % 1031,9 hPa 0,0 l/m 0,0 km/h N 5,1 C 11,1 C 0,0 km/h
30.09.2015 20:00 10,3 C 72 % 1032,1 hPa 0,0 l/m 0,0 km/h N 5,4 C 10,3 C 0,0 km/h
30.09.2015 21:00 9,7 C 76 % 1032,4 hPa 0,0 l/m 0,0 km/h N 5,6 C 9,7 C 0,0 km/h
30.09.2015 22:00 8,9 C 78 % 1032,5 hPa 0,0 l/m 0,0 km/h N 5,2 C 8,9 C 0,0 km/h
30.09.2015 23:00 8,5 C 80 % 1032,3 hPa 0,0 l/m 0,0 km/h N 5,3 C 8,5 C 0,0 km/h
01.10.2015 00:00 8,3 C 81 % 1032,1 hPa 0,0 l/m 0,0 km/h N 5,1 C 8,3 C 0,0 km/h
01.10.2015 01:00 8,1 C 82 % 1031,9 hPa 0,0 l/m 0,0 km/h N 5,2 C 8,1 C 0,0 km/h
01.10.2015 02:00 8,0 C 82 % 1031,8 hPa 0,0 l/m 0,0 km/h N 5,1 C 8,0 C 0,0 km/h
01.10.2015 03:00 7,8 C 82 % 1031,6 hPa 0,0 l/m 0,0 km/h N 4,9 C 7,8 C 0,0 km/h
01.10.2015 04:00 7,2 C 82 % 1031,6 hPa 0,0 l/m 0,0 km/h N 4,3 C 7,2 C 0,0 km/h
01.10.2015 05:00 6,2 C 83 % 1031,7 hPa 0,0 l/m 0,0 km/h N 3,5 C 6,2 C 0,0 km/h
01.10.2015 06:00 4,9 C 83 % 1031,8 hPa 0,0 l/m 0,0 km/h N 2,3 C 4,9 C 0,0 km/h
01.10.2015 07:00 4,2 C 83 % 1032,0 hPa 0,0 l/m 0,0 km/h N 1,6 C 4,2 C 0,0 km/h
01.10.2015 08:00 5,1 C 83 % 1032,1 hPa 0,0 l/m 0,0 km/h N 2,4 C 5,1 C 0,0 km/h
01.10.2015 09:00 8,6 C 81 % 1031,8 hPa 0,0 l/m 1,0 km/h N 5,5 C 8,6 C 6,0 km/h
01.10.2015 10:00 12,8 C 64 % 1031,6 hPa 0,0 l/m 2,7 km/h N 6,2 C 12,8 C 7,6 km/h
01.10.2015 11:00 14,7 C 59 % 1031,4 hPa 0,0 l/m 1,0 km/h N 6,6 C 14,7 C 7,6 km/h
01.10.2015 12:00 15,8 C 55 % 1030,9 hPa 0,0 l/m 1,3 km/h N 6,7 C 15,8 C 10,5 km/h
01.10.2015 13:00 16,5 C 51 % 1030,4 hPa 0,0 l/m 2,0 km/h N 6,3 C 16,5 C 10,9 km/h
01.10.2015 14:00 17,0 C 48 % 1030,2 hPa 0,0 l/m 1,8 km/h N 5,9 C 17,0 C 10,9 km/h
01.10.2015 15:00 17,1 C 47 % 1029,9 hPa 0,0 l/m 1,8 km/h N 5,7 C 17,1 C 10,1 km/h
01.10.2015 16:00 16,0 C 51 % 1029,7 hPa 0,0 l/m 1,4 km/h N 5,8 C 16,0 C 9,6 km/h
01.10.2015 17:00 15,2 C 54 % 1029,6 hPa 0,0 l/m 0,8 km/h N 5,8 C 15,2 C 7,2 km/h
01.10.2015 18:00 14,1 C 58 % 1029,7 hPa 0,0 l/m 0,0 km/h N 5,8 C 14,1 C 1,6 km/h
01.10.2015 19:00 11,8 C 65 % 1029,8 hPa 0,0 l/m 0,0 km/h N 5,4 C 11,8 C 0,0 km/h
01.10.2015 20:00 9,4 C 74 % 1029,9 hPa 0,0 l/m 0,0 km/h N 5,0 C 9,4 C 0,4 km/h
01.10.2015 21:00 7,8 C 78 % 1029,6 hPa 0,0 l/m 0,0 km/h N 4,3 C 7,8 C 0,0 km/h
01.10.2015 22:00 6,6 C 81 % 1029,7 hPa 0,0 l/m 0,0 km/h N 3,5 C 6,6 C 0,0 km/h
01.10.2015 23:00 5,8 C 82 % 1029,6 hPa 0,0 l/m 0,0 km/h N 3,0 C 5,8 C 0,0 km/h
02.10.2015 00:00 5,3 C 82 % 1029,4 hPa 0,0 l/m 0,0 km/h N 2,5 C 5,3 C 0,0 km/h
02.10.2015 01:00 4,7 C 83 % 1028,9 hPa 0,0 l/m 0,0 km/h N 2,1 C 4,7 C 0,0 km/h
02.10.2015 02:00 4,4 C 83 % 1028,8 hPa 0,0 l/m 0,0 km/h N 1,8 C 4,4 C 0,0 km/h
02.10.2015 03:00 4,0 C 83 % 1028,8 hPa 0,0 l/m 0,0 km/h N 1,4 C 4,0 C 0,0 km/h
02.10.2015 04:00 3,7 C 83 % 1028,6 hPa 0,0 l/m 0,0 km/h N 1,1 C 3,7 C 0,0 km/h
02.10.2015 05:00 3,5 C 83 % 1028,5 hPa 0,0 l/m 0,0 km/h N 0,8 C 3,5 C 0,0 km/h
02.10.2015 06:00 3,2 C 83 % 1028,5 hPa 0,0 l/m 0,0 km/h N 0,6 C 3,2 C 0,0 km/h
02.10.2015 07:00 3,1 C 83 % 1028,7 hPa 0,0 l/m 0,0 km/h N 0,5 C 3,1 C 0,0 km/h
02.10.2015 08:00 4,6 C 82 % 1028,7 hPa 0,0 l/m 0,1 km/h N 1,7 C 4,6 C 1,2 km/h
02.10.2015 09:00 8,6 C 82 % 1028,6 hPa 0,0 l/m 1,3 km/h N 5,6 C 8,6 C 7,6 km/h
02.10.2015 10:00 12,9 C 76 % 1028,1 hPa 0,0 l/m 0,7 km/h N 8,6 C 12,9 C 6,4 km/h
02.10.2015 11:00 16,8 C 58 % 1027,2 hPa 0,0 l/m 5,7 km/h N 8,5 C 16,7 C 20,9 km/h
02.10.2015 12:00 18,1 C 55 % 1026,6 hPa 0,0 l/m 6,1 km/h N 8,9 C 18,0 C 18,5 km/h
02.10.2015 13:00 18,9 C 50 % 1026,1 hPa 0,0 l/m 7,9 km/h N 8,3 C 18,3 C 22,1 km/h
02.10.2015 14:00 19,1 C 50 % 1025,4 hPa 0,0 l/m 6,9 km/h N 8,3 C 18,9 C 20,5 km/h
02.10.2015 15:00 19,3 C 49 % 1024,7 hPa 0,0 l/m 6,2 km/h N 8,4 C 19,3 C 18,1 km/h
02.10.2015 16:00 18,5 C 51 % 1024,3 hPa 0,0 l/m 6,2 km/h N 8,3 C 18,5 C 19,7 km/h
02.10.2015 17:00 17,8 C 53 % 1023,9 hPa 0,0 l/m 5,8 km/h N 8,1 C 17,7 C 16,1 km/h
02.10.2015 18:00 16,7 C 57 % 1023,6 hPa 0,0 l/m 2,6 km/h N 8,0 C 16,7 C 14,9 km/h
02.10.2015 19:00 15,2 C 61 % 1023,7 hPa 0,0 l/m 0,8 km/h N 7,8 C 15,2 C 8,0 km/h
02.10.2015 20:00 14,8 C 64 % 1023,4 hPa 0,0 l/m 1,3 km/h N 7,9 C 14,8 C 9,7 km/h
02.10.2015 21:00 14,1 C 67 % 1022,9 hPa 0,0 l/m 3,3 km/h N 7,9 C 14,1 C 14,9 km/h
02.10.2015 22:00 13,3 C 70 % 1022,6 hPa 0,0 l/m 1,9 km/h N 7,9 C 13,3 C 10,9 km/h
02.10.2015 23:00 13,1 C 71 % 1022,2 hPa 0,0 l/m 1,2 km/h N 8,0 C 13,1 C 10,1 km/h
03.10.2015 00:00 12,9 C 71 % 1021,8 hPa 0,0 l/m 0,7 km/h N 7,8 C 12,9 C 7,6 km/h
03.10.2015 01:00 12,3 C 74 % 1021,4 hPa 0,0 l/m 0,4 km/h N 7,7 C 12,3 C 6,0 km/h
03.10.2015 02:00 12,5 C 74 % 1021,0 hPa 0,0 l/m 0,4 km/h N 7,9 C 12,5 C 6,0 km/h
03.10.2015 03:00 12,1 C 75 % 1020,5 hPa 0,0 l/m 0,1 km/h N 7,8 C 12,1 C 3,2 km/h
03.10.2015 04:00 10,8 C 76 % 1020,2 hPa 0,0 l/m 0,0 km/h N 6,6 C 10,8 C 0,0 km/h
03.10.2015 05:00 9,2 C 79 % 1019,8 hPa 0,0 l/m 0,0 km/h N 5,8 C 9,2 C 0,0 km/h
03.10.2015 06:00 9,0 C 82 % 1019,4 hPa 0,0 l/m 0,0 km/h N 6,1 C 9,0 C 0,4 km/h
03.10.2015 07:00 9,4 C 82 % 1019,4 hPa 0,0 l/m 0,1 km/h N 6,5 C 9,4 C 2,8 km/h
03.10.2015 08:00 10,9 C 82 % 1019,6 hPa 0,0 l/m 0,1 km/h N 8,0 C 10,9 C 3,6 km/h
03.10.2015 09:00 14,9 C 74 % 1019,4 hPa 0,0 l/m 2,2 km/h N 10,3 C 14,9 C 10,1 km/h
03.10.2015 10:00 17,2 C 66 % 1019,2 hPa 0,0 l/m 2,9 km/h N 10,8 C 17,2 C 14,1 km/h
03.10.2015 11:00 17,8 C 66 % 1018,7 hPa 0,0 l/m 2,6 km/h N 11,4 C 17,8 C 11,3 km/h
03.10.2015 12:00 19,1 C 62 % 1017,9 hPa 0,0 l/m 5,9 km/h N 11,7 C 18,9 C 19,3 km/h
03.10.2015 13:00 20,5 C 60 % 1017,3 hPa 0,0 l/m 6,9 km/h N 12,4 C 20,1 C 21,7 km/h
03.10.2015 14:00 20,5 C 61 % 1016,8 hPa 0,0 l/m 3,2 km/h N 12,7 C 20,5 C 14,1 km/h
03.10.2015 15:00 21,7 C 59 % 1016,4 hPa 0,0 l/m 3,4 km/h N 13,2 C 21,7 C 15,7 km/h
03.10.2015 16:00 21,3 C 57 % 1016,0 hPa 0,0 l/m 6,5 km/h N 12,5 C 21,0 C 18,1 km/h
03.10.2015 17:00 20,4 C 60 % 1015,5 hPa 0,0 l/m 6,3 km/h N 12,3 C 20,2 C 16,9 km/h
03.10.2015 18:00 19,1 C 63 % 1015,7 hPa 0,0 l/m 5,7 km/h N 11,9 C 19,0 C 16,9 km/h
03.10.2015 19:00 17,9 C 69 % 1015,8 hPa 0,0 l/m 1,7 km/h N 12,0 C 17,9 C 10,1 km/h
03.10.2015 20:00 16,9 C 72 % 1015,7 hPa 0,0 l/m 2,8 km/h N 11,9 C 16,9 C 13,3 km/h
03.10.2015 21:00 16,0 C 76 % 1015,8 hPa 0,0 l/m 0,9 km/h N 11,7 C 16,0 C 7,6 km/h
03.10.2015 22:00 15,3 C 78 % 1015,7 hPa 0,0 l/m 1,1 km/h N 11,4 C 15,3 C 9,3 km/h
03.10.2015 23:00 14,4 C 80 % 1015,5 hPa 0,0 l/m 0,1 km/h N 11,0 C 14,4 C 4,0 km/h
04.10.2015 00:00 13,4 C 81 % 1015,2 hPa 0,0 l/m 0,0 km/h N 10,1 C 13,4 C 0,8 km/h
04.10.2015 01:00 12,0 C 82 % 1015,1 hPa 0,0 l/m 0,4 km/h N 8,9 C 12,0 C 2,4 km/h
04.10.2015 02:00 10,3 C 82 % 1015,0 hPa 0,0 l/m 0,0 km/h N 7,3 C 10,3 C 0,0 km/h
04.10.2015 03:00 9,2 C 82 % 1014,9 hPa 0,0 l/m 0,0 km/h N 6,3 C 9,2 C 0,0 km/h
04.10.2015 04:00 9,0 C 82 % 1015,1 hPa 0,0 l/m 0,0 km/h N 6,1 C 9,0 C 0,0 km/h
04.10.2015 05:00 9,2 C 82 % 1015,4 hPa 0,0 l/m 0,0 km/h N 6,2 C 9,2 C 0,0 km/h
04.10.2015 06:00 10,6 C 81 % 1015,5 hPa 0,0 l/m 0,0 km/h N 7,4 C 10,6 C 0,4 km/h
04.10.2015 07:00 11,2 C 80 % 1016,0 hPa 0,0 l/m 0,0 km/h N 7,9 C 11,2 C 0,8 km/h
04.10.2015 08:00 11,4 C 80 % 1016,2 hPa 0,0 l/m 0,0 km/h N 8,1 C 11,4 C 1,2 km/h
04.10.2015 09:00 12,1 C 79 % 1016,6 hPa 0,0 l/m 0,0 km/h N 8,6 C 12,1 C 0,8 km/h
04.10.2015 10:00 12,5 C 79 % 1016,9 hPa 0,0 l/m 0,0 km/h N 9,0 C 12,5 C 1,2 km/h
04.10.2015 11:00 12,9 C 79 % 1016,9 hPa 0,0 l/m 0,0 km/h N 9,4 C 12,9 C 1,6 km/h
04.10.2015 12:00 14,2 C 81 % 1016,8 hPa 0,0 l/m 0,0 km/h N 11,0 C 14,2 C 1,6 km/h
04.10.2015 13:00 15,1 C 81 % 1016,9 hPa 0,0 l/m 0,0 km/h N 11,8 C 15,1 C 1,6 km/h
04.10.2015 14:00 16,2 C 79 % 1016,5 hPa 0,0 l/m 0,0 km/h N 12,5 C 16,2 C 0,4 km/h
04.10.2015 15:00 16,6 C 76 % 1016,2 hPa 0,0 l/m 0,0 km/h N 12,4 C 16,6 C 0,0 km/h
04.10.2015 16:00 16,7 C 76 % 1015,9 hPa 0,0 l/m 0,0 km/h N 12,4 C 16,7 C 0,0 km/h
04.10.2015 17:00 16,3 C 78 % 1016,1 hPa 0,0 l/m 2,0 km/h N 12,4 C 16,3 C 6,0 km/h
04.10.2015 18:00 14,8 C 80 % 1016,1 hPa 0,0 l/m 2,6 km/h N 11,3 C 14,8 C 8,4 km/h
04.10.2015 19:00 14,7 C 80 % 1016,2 hPa 0,0 l/m 1,5 km/h N 11,2 C 14,7 C 7,6 km/h
04.10.2015 20:00 14,8 C 80 % 1016,1 hPa 0,0 l/m 0,8 km/h N 11,5 C 14,8 C 5,6 km/h
04.10.2015 21:00 15,4 C 78 % 1016,4 hPa 0,0 l/m 0,4 km/h N 11,6 C 15,4 C 4,0 km/h
04.10.2015 22:00 15,4 C 78 % 1016,3 hPa 0,3 l/m 2,7 km/h N 11,6 C 15,4 C 10,4 km/h
04.10.2015 23:00 13,8 C 81 % 1015,9 hPa 0,3 l/m 2,2 km/h N 10,6 C 13,8 C 12,1 km/h
Min-Datum _ 02.10.15 28.09.15 04.10.15 - 29.09.15 - 02.10.15 02.10.15 30.09.15
_ Min-Zeit 06:45 15:30 02:15 - 22:45 - 06:30 06:30 03:45
Minimum _ 3,0 C 43 % 1014,8 hPa - 0,0 km/h - 0,5 C 3,1 C 0,0 km/h
Max-Datum _ 03.10.15 01.10.15 30.09.15 04.10.15 28.09.15 - 03.10.15 03.10.15 28.09.15
_ Max-Zeit 15:15 04:45 09:30 22:30 12:15 - 15:00 15:15 14:15
Maximum _ 21,9 C 83 % 1032,7 hPa 0,3 l/m 12,0 km/h
N
- 13,5 C 21,9 C 30,6 km/h
N
Durchschnitt _ 12,4 C 69 % 1026,4 hPa #0,5 l/m 2,2 km/h N 6,6 C 12,3 C 8,3 km/h